Nippon Maru II — JFMC — position and weather

sailwx.info

Track history (hours):
 
Tides and Currents Weather Stations Pressure Air Temp Water Temp Dewpoint Dewpoint Depression Visibility Wind Speed Wind Dir Waves Ship Positions

Nippon Maru II (Japan)

Build in 1984. Trains merchant marine cadets for Japan's National Institute for Sea Training.

Ship's website: http://www.kohkun.go.jp/en/ships/index.html

Last reported at 2020-Jan-22 10:34 UTC. Time now 2020-Jan-25 02:50 UTC.
Position N 01°16' E 103°49'.

Length 110.1 m; beam 13.8 m; draft 110.09 m.

Type: Other ship. MMSI: 431498000.

Date/timePositionNaut miles runAvg speedWind from/ knotsBaromVisibWave heightAir tempDewpointWater temp
2020-Jan-22 10:34N 01°16' E 103°49'0 0.0
2020-Jan-22 08:25N 01°16' E 103°49'0 0.0
2020-Jan-21 23:52N 01°16' E 103°49'0 0.0
2020-Jan-21 20:22N 01°16' E 103°49'0 0.0
2020-Jan-21 12:58N 01°16' E 103°49'0 0.0
2020-Jan-21 07:22N 01°16' E 103°49'0 0.0
2020-Jan-20 20:34N 01°16' E 103°49'0 0.0
2020-Jan-20 18:28N 01°16' E 103°49'0 0.0
2020-Jan-19 18:58N 01°16' E 103°49'0 0.0
2020-Jan-19 06:28N 01°16' E 103°49'4 0.7
2020-Jan-19 01:00N 01°12' E 103°51'3 6.6
2020-Jan-19 00:30N 01°15' E 103°52'0 0.0
2020-Jan-18 21:58N 01°15' E 103°52'0 0.0
2020-Jan-18 21:28N 01°15' E 103°52'0 0.0
2020-Jan-18 20:28N 01°15' E 103°52'0 0.0
2020-Jan-18 19:28N 01°15' E 103°52'0 0.0
2020-Jan-18 17:58N 01°15' E 103°52'0 0.0
2020-Jan-18 17:28N 01°15' E 103°52'0 0.1
2020-Jan-18 16:28N 01°15' E 103°52'0 0.1
2020-Jan-18 15:28N 01°15' E 103°52'0 0.0
2020-Jan-18 14:55N 01°15' E 103°52'0 0.0
2020-Jan-18 13:28N 01°15' E 103°52'0 0.0
2020-Jan-18 10:28N 01°15' E 103°52'0 0.0
2020-Jan-18 09:58N 01°15' E 103°52'5 1.5
2020-Jan-18 06:31N 01°14' E 103°57'3 6.2
2020-Jan-18 06:01N 01°16' E 103°60'  
Track history (hours):
 
Tides and Currents Weather Stations Pressure Air Temp Water Temp Dewpoint Dewpoint Depression Visibility Wind Speed Wind Dir Waves Ship Positions

Nippon Maru II (Japan)

Build in 1984. Trains merchant marine cadets for Japan's National Institute for Sea Training.

Ship's website: http://www.kohkun.go.jp/en/ships/index.html

Last reported at 2020-Jan-22 10:34 UTC. Time now 2020-Jan-25 02:50 UTC.
Position N 01°16' E 103°49'.

Length 110.1 m; beam 13.8 m; draft 110.09 m.

Type: Other ship. MMSI: 431498000.

Date/timePositionNaut miles runAvg speedWind from/ knotsBaromVisibWave heightAir tempDewpointWater temp
2020-Jan-22 10:34N 01°16' E 103°49'0 0.0
2020-Jan-22 08:25N 01°16' E 103°49'0 0.0
2020-Jan-21 23:52N 01°16' E 103°49'0 0.0
2020-Jan-21 20:22N 01°16' E 103°49'0 0.0
2020-Jan-21 12:58N 01°16' E 103°49'0 0.0
2020-Jan-21 07:22N 01°16' E 103°49'0 0.0
2020-Jan-20 20:34N 01°16' E 103°49'0 0.0
2020-Jan-20 18:28N 01°16' E 103°49'0 0.0
2020-Jan-19 18:58N 01°16' E 103°49'0 0.0
2020-Jan-19 06:28N 01°16' E 103°49'4 0.7
2020-Jan-19 01:00N 01°12' E 103°51'3 6.6
2020-Jan-19 00:30N 01°15' E 103°52'0 0.0
2020-Jan-18 21:58N 01°15' E 103°52'0 0.0
2020-Jan-18 21:28N 01°15' E 103°52'0 0.0
2020-Jan-18 20:28N 01°15' E 103°52'0 0.0
2020-Jan-18 19:28N 01°15' E 103°52'0 0.0
2020-Jan-18 17:58N 01°15' E 103°52'0 0.0
2020-Jan-18 17:28N 01°15' E 103°52'0 0.1
2020-Jan-18 16:28N 01°15' E 103°52'0 0.1
2020-Jan-18 15:28N 01°15' E 103°52'0 0.0
2020-Jan-18 14:55N 01°15' E 103°52'0 0.0
2020-Jan-18 13:28N 01°15' E 103°52'0 0.0
2020-Jan-18 10:28N 01°15' E 103°52'0 0.0
2020-Jan-18 09:58N 01°15' E 103°52'5 1.5
2020-Jan-18 06:31N 01°14' E 103°57'3 6.2
2020-Jan-18 06:01N 01°16' E 103°60'  

Dump ship's entire track history